Weather at Platte Valley Airpark

Public forecast

Using degrees Fahrenheit for public forecast. Weather courtesy of forecast.io.

Closest aviation weather report (METAR) to Platte Valley Airpark

Closest report is Denver International Airport, 14.4 nm (26.6 km) S. Retrieved 2020/11/28 05:53 UTC (1 hour ago):

KDEN 280553Z 20010KT 10SM CLR M02/M07 A3018 RMK AO2 SLP233 T10221067 10017 21028 58003

Closest aviation forecast (TAF) to Platte Valley Airpark

Closest forecast is Denver International Airport, 14.4 nm (26.6 km) S. Retrieved 2020/11/28 06:24 UTC (30 minutes ago):

TAF KDEN 280523Z 2806/2912 20009KT P6SM SKC FM281900 23005KT P6SM SKC FM290300 25007KT P6SM SKC FM290500 30008KT P6SM SKC FM290900 33012KT P6SM FEW060